This is the latest recevied weather packets stored in our database for station/object VK1KCM-5. If no packets are shown the sender has not sent any weather packets the latest 10 day(s).
| Time | Temp. | Humidity | Pressure | Rain* | Wind** | Luminosity | Snow |
|---|---|---|---|---|---|---|---|
| 1787880642 | 12.22° C | 71% | 1025.9 hPa | 0 mm | - | - | - |
| 1787880364 | 11.67° C | 70% | 1025.9 hPa | 0 mm | - | - | - |
| 1787880108 | 12.22° C | 71% | 1026 hPa | 0 mm | - | - | - |
| 1787879852 | 11.67° C | 74% | 1026 hPa | 0 mm | - | - | - |
| 1787879595 | 11.11° C | 73% | 1026.1 hPa | 0 mm | - | - | - |
| 1787879312 | 11.67° C | 69% | 1026.1 hPa | 0 mm | - | - | - |
| 1787879017 | 11.67° C | 71% | 1026.1 hPa | 0 mm | - | - | - |
| 1787878723 | 11.67° C | 71% | 1025.9 hPa | 0 mm | - | - | - |
| 1787878478 | 11.67° C | 68% | 1026.1 hPa | 0 mm | - | - | - |
| 1787878200 | 11.67° C | 69% | 1026.5 hPa | 0 mm | - | - | - |
| 1787877952 | 11.67° C | 69% | 1026.5 hPa | 0 mm | - | - | - |
| 1787877669 | 12.22° C | 71% | 1026.3 hPa | 0 mm | - | - | - |
| 1787877377 | 11.67° C | 72% | 1026.2 hPa | 0 mm | - | - | - |
| 1787877095 | 11.67° C | 71% | 1026.3 hPa | 0 mm | - | - | - |
| 1787876807 | 12.22° C | 70% | 1026.2 hPa | 0 mm | - | - | - |
| 1787876543 | 11.67° C | 70% | 1026.3 hPa | 0 mm | - | - | - |
| 1787876275 | 11.67° C | 72% | 1026.3 hPa | 0 mm | - | - | - |
| 1787876002 | 11.11° C | 71% | 1026.5 hPa | 0 mm | - | - | - |
| 1787875742 | 10.56° C | 74% | 1026.7 hPa | 0 mm | - | - | - |
| 1787875484 | 10° C | 76% | 1026.9 hPa | 0 mm | - | - | - |
| 1787875197 | 10.56° C | 76% | 1026.7 hPa | 0 mm | - | - | - |
| 1787874948 | 10.56° C | 76% | 1026.7 hPa | 0 mm | - | - | - |
| 1787874662 | 9.44° C | 79% | 1027.1 hPa | 0 mm | - | - | - |
| 1787874412 | 8.89° C | 80% | 1027.3 hPa | 0 mm | - | - | - |
| 1787874155 | 8.89° C | 81% | 1027.4 hPa | 0 mm | - | - | - |
* Rain latest hour (hover to see other rain measurements)
** Current wind speed in m/s (hover to see current wind gust speed)